sensor_id;sensor_type;location;lat;lon;timestamp;temperature;humidity
18139;DHT22;9195;53.176;9.486;2022-07-23T00:00:36;15.60;99.90
18139;DHT22;9195;53.176;9.486;2022-07-23T00:03:01;15.60;99.90
18139;DHT22;9195;53.176;9.486;2022-07-23T00:05:27;15.60;99.90
18139;DHT22;9195;53.176;9.486;2022-07-23T00:07:52;15.50;99.90
18139;DHT22;9195;53.176;9.486;2022-07-23T00:10:18;15.60;99.90
18139;DHT22;9195;53.176;9.486;2022-07-23T00:12:44;15.60;99.90
18139;DHT22;9195;53.176;9.486;2022-07-23T00:15:09;15.50;99.90
18139;DHT22;9195;53.176;9.486;2022-07-23T00:17:35;15.50;99.90
18139;DHT22;9195;53.176;9.486;2022-07-23T00:20:01;15.40;99.90
18139;DHT22;9195;53.176;9.486;2022-07-23T00:22:27;15.50;99.90
18139;DHT22;9195;53.176;9.486;2022-07-23T00:24:54;15.50;99.90
18139;DHT22;9195;53.176;9.486;2022-07-23T00:27:20;15.40;99.90
18139;DHT22;9195;53.176;9.486;2022-07-23T00:29:46;15.40;99.90
18139;DHT22;9195;53.176;9.486;2022-07-23T00:32:11;15.30;99.90
18139;DHT22;9195;53.176;9.486;2022-07-23T00:34:37;15.30;99.90
18139;DHT22;9195;53.176;9.486;2022-07-23T00:37:02;15.30;99.90
18139;DHT22;9195;53.176;9.486;2022-07-23T00:39:28;15.30;99.90
18139;DHT22;9195;53.176;9.486;2022-07-23T00:41:53;15.20;99.90
18139;DHT22;9195;53.176;9.486;2022-07-23T00:44:24;15.10;99.90
18139;DHT22;9195;53.176;9.486;2022-07-23T00:46:52;15.10;99.90
18139;DHT22;9195;53.176;9.486;2022-07-23T00:49:28;15.00;99.90
18139;DHT22;9195;53.176;9.486;2022-07-23T00:51:54;14.90;99.90
18139;DHT22;9195;53.176;9.486;2022-07-23T00:54:25;14.90;99.90
18139;DHT22;9195;53.176;9.486;2022-07-23T00:56:51;14.80;99.90
18139;DHT22;9195;53.176;9.486;2022-07-23T00:59:17;14.80;99.90
18139;DHT22;9195;53.176;9.486;2022-07-23T01:01:42;14.80;99.90
18139;DHT22;9195;53.176;9.486;2022-07-23T01:04:09;14.70;99.90
18139;DHT22;9195;53.176;9.486;2022-07-23T01:06:37;14.70;99.90
18139;DHT22;9195;53.176;9.486;2022-07-23T01:09:04;14.70;99.90
18139;DHT22;9195;53.176;9.486;2022-07-23T01:11:31;14.70;99.90
18139;DHT22;9195;53.176;9.486;2022-07-23T01:13:57;14.70;99.90
18139;DHT22;9195;53.176;9.486;2022-07-23T01:16:22;14.70;99.90
18139;DHT22;9195;53.176;9.486;2022-07-23T01:18:48;14.70;99.90
18139;DHT22;9195;53.176;9.486;2022-07-23T01:21:14;14.70;99.90
18139;DHT22;9195;53.176;9.486;2022-07-23T01:23:42;14.70;99.90
18139;DHT22;9195;53.176;9.486;2022-07-23T01:26:08;14.70;99.90
18139;DHT22;9195;53.176;9.486;2022-07-23T01:28:34;14.60;99.90
18139;DHT22;9195;53.176;9.486;2022-07-23T01:30:59;14.60;99.90
18139;DHT22;9195;53.176;9.486;2022-07-23T01:33:25;14.60;99.90
18139;DHT22;9195;53.176;9.486;2022-07-23T01:35:50;14.60;99.90
18139;DHT22;9195;53.176;9.486;2022-07-23T01:38:16;14.50;99.90
18139;DHT22;9195;53.176;9.486;2022-07-23T01:40:41;14.40;99.90
18139;DHT22;9195;53.176;9.486;2022-07-23T01:43:07;14.40;99.90
18139;DHT22;9195;53.176;9.486;2022-07-23T01:45:32;14.40;99.90
18139;DHT22;9195;53.176;9.486;2022-07-23T01:47:58;14.40;99.90
18139;DHT22;9195;53.176;9.486;2022-07-23T01:50:23;14.30;99.90
18139;DHT22;9195;53.176;9.486;2022-07-23T01:52:49;14.30;99.90
18139;DHT22;9195;53.176;9.486;2022-07-23T01:55:15;14.20;99.90
18139;DHT22;9195;53.176;9.486;2022-07-23T01:57:40;14.20;99.90
18139;DHT22;9195;53.176;9.486;2022-07-23T02:00:06;14.10;99.90
18139;DHT22;9195;53.176;9.486;2022-07-23T02:02:32;14.00;99.90
18139;DHT22;9195;53.176;9.486;2022-07-23T02:04:58;14.00;99.90
18139;DHT22;9195;53.176;9.486;2022-07-23T02:07:23;14.00;99.90
18139;DHT22;9195;53.176;9.486;2022-07-23T02:09:49;13.90;99.90
18139;DHT22;9195;53.176;9.486;2022-07-23T02:12:14;13.90;99.90
18139;DHT22;9195;53.176;9.486;2022-07-23T02:14:40;13.90;99.90
18139;DHT22;9195;53.176;9.486;2022-07-23T02:17:05;13.90;99.90
18139;DHT22;9195;53.176;9.486;2022-07-23T02:19:31;13.90;99.90
18139;DHT22;9195;53.176;9.486;2022-07-23T02:21:57;13.90;99.90
18139;DHT22;9195;53.176;9.486;2022-07-23T02:24:22;13.80;99.90
18139;DHT22;9195;53.176;9.486;2022-07-23T02:26:48;13.80;99.90
18139;DHT22;9195;53.176;9.486;2022-07-23T02:29:13;13.80;99.90
18139;DHT22;9195;53.176;9.486;2022-07-23T02:31:39;13.80;99.90
18139;DHT22;9195;53.176;9.486;2022-07-23T02:34:05;13.80;99.90
18139;DHT22;9195;53.176;9.486;2022-07-23T02:36:31;13.80;99.90
18139;DHT22;9195;53.176;9.486;2022-07-23T02:38:56;13.80;99.90
18139;DHT22;9195;53.176;9.486;2022-07-23T02:41:22;13.80;99.90
18139;DHT22;9195;53.176;9.486;2022-07-23T02:43:48;13.80;99.90
18139;DHT22;9195;53.176;9.486;2022-07-23T02:46:14;13.80;99.90
18139;DHT22;9195;53.176;9.486;2022-07-23T02:48:40;13.80;99.90
18139;DHT22;9195;53.176;9.486;2022-07-23T02:51:05;13.80;99.90
18139;DHT22;9195;53.176;9.486;2022-07-23T02:53:31;13.80;99.90
18139;DHT22;9195;53.176;9.486;2022-07-23T02:55:56;13.80;99.90
18139;DHT22;9195;53.176;9.486;2022-07-23T02:58:22;13.80;99.90
18139;DHT22;9195;53.176;9.486;2022-07-23T03:00:47;13.80;99.90
18139;DHT22;9195;53.176;9.486;2022-07-23T03:03:13;13.70;99.90
18139;DHT22;9195;53.176;9.486;2022-07-23T03:05:39;13.80;99.90
18139;DHT22;9195;53.176;9.486;2022-07-23T03:08:04;13.80;99.90
18139;DHT22;9195;53.176;9.486;2022-07-23T03:10:30;13.80;99.90
18139;DHT22;9195;53.176;9.486;2022-07-23T03:12:55;13.80;99.90
18139;DHT22;9195;53.176;9.486;2022-07-23T03:15:21;13.70;99.90
18139;DHT22;9195;53.176;9.486;2022-07-23T03:17:47;13.70;99.90
18139;DHT22;9195;53.176;9.486;2022-07-23T03:20:12;13.80;99.90
18139;DHT22;9195;53.176;9.486;2022-07-23T03:22:38;13.80;99.90
18139;DHT22;9195;53.176;9.486;2022-07-23T03:25:03;13.80;99.90
18139;DHT22;9195;53.176;9.486;2022-07-23T03:27:30;13.80;99.90
18139;DHT22;9195;53.176;9.486;2022-07-23T03:29:58;13.80;99.90
18139;DHT22;9195;53.176;9.486;2022-07-23T03:32:24;13.80;99.90
18139;DHT22;9195;53.176;9.486;2022-07-23T03:34:51;13.90;99.90
18139;DHT22;9195;53.176;9.486;2022-07-23T03:37:17;13.80;99.90
18139;DHT22;9195;53.176;9.486;2022-07-23T03:39:43;13.80;99.90
18139;DHT22;9195;53.176;9.486;2022-07-23T03:42:09;13.90;99.90
18139;DHT22;9195;53.176;9.486;2022-07-23T03:44:34;13.90;99.90
18139;DHT22;9195;53.176;9.486;2022-07-23T03:47:02;13.90;99.90
18139;DHT22;9195;53.176;9.486;2022-07-23T03:49:28;13.90;99.90
18139;DHT22;9195;53.176;9.486;2022-07-23T03:51:54;13.80;99.90
18139;DHT22;9195;53.176;9.486;2022-07-23T03:54:19;13.90;99.90
18139;DHT22;9195;53.176;9.486;2022-07-23T03:56:45;13.90;99.90
18139;DHT22;9195;53.176;9.486;2022-07-23T03:59:10;14.00;99.90
18139;DHT22;9195;53.176;9.486;2022-07-23T04:01:36;13.90;99.90
18139;DHT22;9195;53.176;9.486;2022-07-23T04:04:02;13.90;99.90
18139;DHT22;9195;53.176;9.486;2022-07-23T04:06:28;13.90;99.90
18139;DHT22;9195;53.176;9.486;2022-07-23T04:08:54;13.90;99.90
18139;DHT22;9195;53.176;9.486;2022-07-23T04:11:20;14.00;99.90
18139;DHT22;9195;53.176;9.486;2022-07-23T04:13:46;13.90;99.90
18139;DHT22;9195;53.176;9.486;2022-07-23T04:16:11;13.90;99.90
18139;DHT22;9195;53.176;9.486;2022-07-23T04:18:37;13.90;99.90
18139;DHT22;9195;53.176;9.486;2022-07-23T04:21:03;13.90;99.90
18139;DHT22;9195;53.176;9.486;2022-07-23T04:23:29;14.00;99.90
18139;DHT22;9195;53.176;9.486;2022-07-23T04:25:54;14.00;99.90
18139;DHT22;9195;53.176;9.486;2022-07-23T04:28:20;14.00;99.90
18139;DHT22;9195;53.176;9.486;2022-07-23T04:30:45;14.10;99.90
18139;DHT22;9195;53.176;9.486;2022-07-23T04:33:11;14.10;99.90
18139;DHT22;9195;53.176;9.486;2022-07-23T04:35:37;14.00;99.90
18139;DHT22;9195;53.176;9.486;2022-07-23T04:38:03;14.10;99.90
18139;DHT22;9195;53.176;9.486;2022-07-23T04:40:29;14.00;99.90
18139;DHT22;9195;53.176;9.486;2022-07-23T04:42:55;14.10;99.90
18139;DHT22;9195;53.176;9.486;2022-07-23T04:45:20;14.10;99.90
18139;DHT22;9195;53.176;9.486;2022-07-23T04:47:46;14.20;99.90
18139;DHT22;9195;53.176;9.486;2022-07-23T04:50:11;14.10;99.90
18139;DHT22;9195;53.176;9.486;2022-07-23T04:52:37;14.10;99.90
18139;DHT22;9195;53.176;9.486;2022-07-23T04:55:03;14.20;99.90
18139;DHT22;9195;53.176;9.486;2022-07-23T04:57:29;14.20;99.90
18139;DHT22;9195;53.176;9.486;2022-07-23T04:59:55;14.20;99.90
18139;DHT22;9195;53.176;9.486;2022-07-23T05:02:20;14.20;99.90
18139;DHT22;9195;53.176;9.486;2022-07-23T05:04:46;14.20;99.90
18139;DHT22;9195;53.176;9.486;2022-07-23T05:07:11;14.20;99.90
18139;DHT22;9195;53.176;9.486;2022-07-23T05:09:37;14.20;99.90
18139;DHT22;9195;53.176;9.486;2022-07-23T05:12:03;14.30;99.90
18139;DHT22;9195;53.176;9.486;2022-07-23T05:14:29;14.30;99.90
18139;DHT22;9195;53.176;9.486;2022-07-23T05:16:54;14.30;99.90
18139;DHT22;9195;53.176;9.486;2022-07-23T05:19:20;14.40;99.90
18139;DHT22;9195;53.176;9.486;2022-07-23T05:21:46;14.50;99.90
18139;DHT22;9195;53.176;9.486;2022-07-23T05:24:11;14.50;99.90
18139;DHT22;9195;53.176;9.486;2022-07-23T05:26:37;14.60;99.90
18139;DHT22;9195;53.176;9.486;2022-07-23T05:29:02;14.70;99.90
18139;DHT22;9195;53.176;9.486;2022-07-23T05:31:28;14.70;99.90
18139;DHT22;9195;53.176;9.486;2022-07-23T05:33:53;14.80;99.90
18139;DHT22;9195;53.176;9.486;2022-07-23T05:36:19;14.90;99.90
18139;DHT22;9195;53.176;9.486;2022-07-23T05:38:45;15.00;99.90
18139;DHT22;9195;53.176;9.486;2022-07-23T05:41:10;15.10;99.90
18139;DHT22;9195;53.176;9.486;2022-07-23T05:43:36;15.10;99.90
18139;DHT22;9195;53.176;9.486;2022-07-23T05:46:01;15.20;99.90
18139;DHT22;9195;53.176;9.486;2022-07-23T05:48:27;15.20;99.90
18139;DHT22;9195;53.176;9.486;2022-07-23T05:50:52;15.30;99.90
18139;DHT22;9195;53.176;9.486;2022-07-23T05:53:18;15.40;99.90
18139;DHT22;9195;53.176;9.486;2022-07-23T05:55:44;15.60;99.90
18139;DHT22;9195;53.176;9.486;2022-07-23T05:58:09;15.70;99.90
18139;DHT22;9195;53.176;9.486;2022-07-23T06:00:35;15.70;99.90
18139;DHT22;9195;53.176;9.486;2022-07-23T06:03:01;15.70;99.90
18139;DHT22;9195;53.176;9.486;2022-07-23T06:05:26;15.70;99.90
18139;DHT22;9195;53.176;9.486;2022-07-23T06:07:52;15.80;99.90
18139;DHT22;9195;53.176;9.486;2022-07-23T06:10:18;15.70;99.90
18139;DHT22;9195;53.176;9.486;2022-07-23T06:12:44;15.70;99.90
18139;DHT22;9195;53.176;9.486;2022-07-23T06:15:10;15.70;99.90
18139;DHT22;9195;53.176;9.486;2022-07-23T06:17:37;15.60;99.90
18139;DHT22;9195;53.176;9.486;2022-07-23T06:20:08;15.70;99.90
18139;DHT22;9195;53.176;9.486;2022-07-23T06:22:34;15.70;99.90
18139;DHT22;9195;53.176;9.486;2022-07-23T06:25:00;15.70;99.90
18139;DHT22;9195;53.176;9.486;2022-07-23T06:27:26;15.90;99.90
18139;DHT22;9195;53.176;9.486;2022-07-23T06:29:52;16.00;99.90
18139;DHT22;9195;53.176;9.486;2022-07-23T06:32:18;16.10;99.90
18139;DHT22;9195;53.176;9.486;2022-07-23T06:34:43;16.40;99.90
18139;DHT22;9195;53.176;9.486;2022-07-23T06:37:09;16.40;99.90
18139;DHT22;9195;53.176;9.486;2022-07-23T06:39:34;16.70;99.90
18139;DHT22;9195;53.176;9.486;2022-07-23T06:42:00;16.90;99.90
18139;DHT22;9195;53.176;9.486;2022-07-23T06:44:26;17.10;99.90
18139;DHT22;9195;53.176;9.486;2022-07-23T06:46:52;17.10;99.90
18139;DHT22;9195;53.176;9.486;2022-07-23T06:49:18;17.10;99.90
18139;DHT22;9195;53.176;9.486;2022-07-23T06:51:44;17.20;99.90
18139;DHT22;9195;53.176;9.486;2022-07-23T06:54:09;17.30;99.90
18139;DHT22;9195;53.176;9.486;2022-07-23T06:56:35;17.50;99.90
18139;DHT22;9195;53.176;9.486;2022-07-23T06:59:01;17.70;99.90
18139;DHT22;9195;53.176;9.486;2022-07-23T07:01:26;18.00;99.90
18139;DHT22;9195;53.176;9.486;2022-07-23T07:03:52;18.00;99.90
18139;DHT22;9195;53.176;9.486;2022-07-23T07:06:18;18.10;99.90
18139;DHT22;9195;53.176;9.486;2022-07-23T07:08:43;18.10;99.90
18139;DHT22;9195;53.176;9.486;2022-07-23T07:11:09;18.00;99.90
18139;DHT22;9195;53.176;9.486;2022-07-23T07:13:36;18.00;99.90
18139;DHT22;9195;53.176;9.486;2022-07-23T07:16:02;18.10;99.90
18139;DHT22;9195;53.176;9.486;2022-07-23T07:18:27;18.00;99.90
18139;DHT22;9195;53.176;9.486;2022-07-23T07:20:53;18.20;99.90
18139;DHT22;9195;53.176;9.486;2022-07-23T07:23:19;18.30;99.90
18139;DHT22;9195;53.176;9.486;2022-07-23T07:25:46;18.30;99.90
18139;DHT22;9195;53.176;9.486;2022-07-23T07:28:12;18.30;99.90
18139;DHT22;9195;53.176;9.486;2022-07-23T07:30:37;18.30;99.90
18139;DHT22;9195;53.176;9.486;2022-07-23T07:33:03;18.40;99.90
18139;DHT22;9195;53.176;9.486;2022-07-23T07:35:28;18.50;99.90
18139;DHT22;9195;53.176;9.486;2022-07-23T07:37:54;18.70;99.90
18139;DHT22;9195;53.176;9.486;2022-07-23T07:40:20;18.50;99.90
18139;DHT22;9195;53.176;9.486;2022-07-23T07:42:51;18.50;99.90
18139;DHT22;9195;53.176;9.486;2022-07-23T07:45:19;18.60;99.90
18139;DHT22;9195;53.176;9.486;2022-07-23T07:47:45;18.70;99.90
18139;DHT22;9195;53.176;9.486;2022-07-23T07:50:10;18.80;99.90
18139;DHT22;9195;53.176;9.486;2022-07-23T07:52:36;18.70;99.90
18139;DHT22;9195;53.176;9.486;2022-07-23T07:55:03;19.00;99.90
18139;DHT22;9195;53.176;9.486;2022-07-23T07:57:29;18.90;99.90
18139;DHT22;9195;53.176;9.486;2022-07-23T07:59:55;18.90;99.90
18139;DHT22;9195;53.176;9.486;2022-07-23T08:02:20;18.90;99.90
18139;DHT22;9195;53.176;9.486;2022-07-23T08:04:46;19.00;99.90
18139;DHT22;9195;53.176;9.486;2022-07-23T08:07:12;18.80;99.90
18139;DHT22;9195;53.176;9.486;2022-07-23T08:09:38;19.00;99.90
18139;DHT22;9195;53.176;9.486;2022-07-23T08:12:03;19.10;99.90
18139;DHT22;9195;53.176;9.486;2022-07-23T08:14:29;19.40;99.90
18139;DHT22;9195;53.176;9.486;2022-07-23T08:16:55;19.30;99.90
18139;DHT22;9195;53.176;9.486;2022-07-23T08:19:20;19.30;99.90
18139;DHT22;9195;53.176;9.486;2022-07-23T08:21:46;19.20;99.90
18139;DHT22;9195;53.176;9.486;2022-07-23T08:24:11;19.10;99.90
18139;DHT22;9195;53.176;9.486;2022-07-23T08:26:37;19.10;99.90
18139;DHT22;9195;53.176;9.486;2022-07-23T08:29:02;19.30;99.90
18139;DHT22;9195;53.176;9.486;2022-07-23T08:31:28;19.40;99.90
18139;DHT22;9195;53.176;9.486;2022-07-23T08:33:53;19.70;99.90
18139;DHT22;9195;53.176;9.486;2022-07-23T08:36:20;19.90;99.90
18139;DHT22;9195;53.176;9.486;2022-07-23T08:38:46;20.00;99.90
18139;DHT22;9195;53.176;9.486;2022-07-23T08:41:11;20.50;99.90
18139;DHT22;9195;53.176;9.486;2022-07-23T08:43:37;20.50;99.90
18139;DHT22;9195;53.176;9.486;2022-07-23T08:46:04;20.30;99.90
18139;DHT22;9195;53.176;9.486;2022-07-23T08:48:32;20.10;99.90
18139;DHT22;9195;53.176;9.486;2022-07-23T08:51:00;20.10;99.90
18139;DHT22;9195;53.176;9.486;2022-07-23T08:53:27;20.10;99.90
18139;DHT22;9195;53.176;9.486;2022-07-23T08:55:56;20.20;99.90
18139;DHT22;9195;53.176;9.486;2022-07-23T08:58:22;20.40;99.90
18139;DHT22;9195;53.176;9.486;2022-07-23T09:00:49;20.60;99.90
18139;DHT22;9195;53.176;9.486;2022-07-23T09:03:17;20.30;99.90
18139;DHT22;9195;53.176;9.486;2022-07-23T09:05:43;20.40;99.90
18139;DHT22;9195;53.176;9.486;2022-07-23T09:08:10;20.50;99.90
18139;DHT22;9195;53.176;9.486;2022-07-23T09:11:12;20.70;99.90
18139;DHT22;9195;53.176;9.486;2022-07-23T09:13:48;20.70;99.90
18139;DHT22;9195;53.176;9.486;2022-07-23T09:16:18;20.90;99.90
18139;DHT22;9195;53.176;9.486;2022-07-23T09:18:55;21.20;99.90
18139;DHT22;9195;53.176;9.486;2022-07-23T09:21:28;21.60;99.90
18139;DHT22;9195;53.176;9.486;2022-07-23T09:24:00;21.70;99.90
18139;DHT22;9195;53.176;9.486;2022-07-23T09:26:29;21.70;99.90
18139;DHT22;9195;53.176;9.486;2022-07-23T09:29:07;21.50;99.90
18139;DHT22;9195;53.176;9.486;2022-07-23T09:31:47;21.40;99.90
18139;DHT22;9195;53.176;9.486;2022-07-23T09:34:31;21.10;99.90
18139;DHT22;9195;53.176;9.486;2022-07-23T09:37:16;21.00;99.90
18139;DHT22;9195;53.176;9.486;2022-07-23T09:39:44;21.20;99.90
18139;DHT22;9195;53.176;9.486;2022-07-23T09:42:25;21.40;99.90
18139;DHT22;9195;53.176;9.486;2022-07-23T09:44:54;21.70;99.90
18139;DHT22;9195;53.176;9.486;2022-07-23T09:47:22;21.60;99.90
18139;DHT22;9195;53.176;9.486;2022-07-23T09:50:03;21.80;99.90
18139;DHT22;9195;53.176;9.486;2022-07-23T09:52:45;21.50;99.90
18139;DHT22;9195;53.176;9.486;2022-07-23T09:55:13;21.60;99.90
18139;DHT22;9195;53.176;9.486;2022-07-23T09:57:41;21.70;99.90
18139;DHT22;9195;53.176;9.486;2022-07-23T10:00:08;21.60;99.90
18139;DHT22;9195;53.176;9.486;2022-07-23T10:02:36;21.50;99.90
18139;DHT22;9195;53.176;9.486;2022-07-23T10:05:03;21.30;99.90
18139;DHT22;9195;53.176;9.486;2022-07-23T10:07:32;21.00;99.90
18139;DHT22;9195;53.176;9.486;2022-07-23T10:09:59;20.90;99.90
18139;DHT22;9195;53.176;9.486;2022-07-23T10:12:25;21.10;99.90
18139;DHT22;9195;53.176;9.486;2022-07-23T10:15:10;21.00;99.90
18139;DHT22;9195;53.176;9.486;2022-07-23T10:17:36;20.80;99.90
18139;DHT22;9195;53.176;9.486;2022-07-23T10:20:03;20.80;99.90
18139;DHT22;9195;53.176;9.486;2022-07-23T10:22:31;20.90;99.90
18139;DHT22;9195;53.176;9.486;2022-07-23T10:28:07;20.70;99.90
18139;DHT22;9195;53.176;9.486;2022-07-23T10:31:01;20.60;99.90
18139;DHT22;9195;53.176;9.486;2022-07-23T10:36:22;20.60;99.90
18139;DHT22;9195;53.176;9.486;2022-07-23T10:39:14;20.50;99.90
18139;DHT22;9195;53.176;9.486;2022-07-23T10:41:41;20.80;99.90
18139;DHT22;9195;53.176;9.486;2022-07-23T10:46:34;21.40;99.90
18139;DHT22;9195;53.176;9.486;2022-07-23T10:54:47;21.40;99.90
18139;DHT22;9195;53.176;9.486;2022-07-23T10:57:14;21.50;99.90
18139;DHT22;9195;53.176;9.486;2022-07-23T11:02:36;22.00;99.90
18139;DHT22;9195;53.176;9.486;2022-07-23T11:05:07;21.80;99.90
18139;DHT22;9195;53.176;9.486;2022-07-23T11:07:34;21.80;99.90
18139;DHT22;9195;53.176;9.486;2022-07-23T11:10:00;21.60;99.90
18139;DHT22;9195;53.176;9.486;2022-07-23T11:15:12;21.10;99.90
18139;DHT22;9195;53.176;9.486;2022-07-23T11:20:18;20.90;99.90
18139;DHT22;9195;53.176;9.486;2022-07-23T11:25:11;21.00;99.90
18139;DHT22;9195;53.176;9.486;2022-07-23T11:27:38;21.10;99.90
18139;DHT22;9195;53.176;9.486;2022-07-23T11:30:05;21.20;99.90
18139;DHT22;9195;53.176;9.486;2022-07-23T11:32:40;21.30;99.90
18139;DHT22;9195;53.176;9.486;2022-07-23T11:35:26;21.30;99.90
18139;DHT22;9195;53.176;9.486;2022-07-23T11:37:54;21.60;99.90
18139;DHT22;9195;53.176;9.486;2022-07-23T11:40:28;21.90;99.90
18139;DHT22;9195;53.176;9.486;2022-07-23T11:43:02;22.60;99.90
18139;DHT22;9195;53.176;9.486;2022-07-23T11:45:34;23.20;99.90
18139;DHT22;9195;53.176;9.486;2022-07-23T11:48:01;23.60;99.80
18139;DHT22;9195;53.176;9.486;2022-07-23T11:50:26;23.90;98.50
18139;DHT22;9195;53.176;9.486;2022-07-23T11:52:53;24.20;98.80
18139;DHT22;9195;53.176;9.486;2022-07-23T11:55:19;24.60;98.40
18139;DHT22;9195;53.176;9.486;2022-07-23T11:57:45;24.90;97.50
18139;DHT22;9195;53.176;9.486;2022-07-23T12:00:14;24.90;97.40
18139;DHT22;9195;53.176;9.486;2022-07-23T12:02:47;25.10;97.70
18139;DHT22;9195;53.176;9.486;2022-07-23T12:05:19;25.40;96.70
18139;DHT22;9195;53.176;9.486;2022-07-23T12:07:45;25.40;96.60
18139;DHT22;9195;53.176;9.486;2022-07-23T12:12:44;25.40;96.00
18139;DHT22;9195;53.176;9.486;2022-07-23T12:15:12;25.10;95.60
18139;DHT22;9195;53.176;9.486;2022-07-23T12:17:40;25.20;96.60
18139;DHT22;9195;53.176;9.486;2022-07-23T12:20:07;25.30;95.90
18139;DHT22;9195;53.176;9.486;2022-07-23T12:22:44;25.20;96.40
18139;DHT22;9195;53.176;9.486;2022-07-23T12:25:12;24.90;95.90
18139;DHT22;9195;53.176;9.486;2022-07-23T12:27:38;25.30;95.70
18139;DHT22;9195;53.176;9.486;2022-07-23T12:32:47;25.30;95.20
18139;DHT22;9195;53.176;9.486;2022-07-23T12:35:13;25.10;95.00
18139;DHT22;9195;53.176;9.486;2022-07-23T12:37:41;25.00;95.30
18139;DHT22;9195;53.176;9.486;2022-07-23T12:40:26;24.90;94.60
18139;DHT22;9195;53.176;9.486;2022-07-23T12:43:02;25.20;94.30
18139;DHT22;9195;53.176;9.486;2022-07-23T12:45:48;25.30;94.00
18139;DHT22;9195;53.176;9.486;2022-07-23T12:53:23;25.90;93.90
18139;DHT22;9195;53.176;9.486;2022-07-23T12:55:51;26.10;93.70
18139;DHT22;9195;53.176;9.486;2022-07-23T12:58:22;26.40;93.10
18139;DHT22;9195;53.176;9.486;2022-07-23T13:00:55;26.30;92.30
18139;DHT22;9195;53.176;9.486;2022-07-23T13:03:29;26.80;92.50
18139;DHT22;9195;53.176;9.486;2022-07-23T13:05:55;26.60;92.00
18139;DHT22;9195;53.176;9.486;2022-07-23T13:08:22;26.40;90.50
18139;DHT22;9195;53.176;9.486;2022-07-23T13:10:48;26.00;91.10
18139;DHT22;9195;53.176;9.486;2022-07-23T13:13:20;26.00;91.00
18139;DHT22;9195;53.176;9.486;2022-07-23T13:15:47;26.40;90.90
18139;DHT22;9195;53.176;9.486;2022-07-23T13:18:12;26.70;91.10
18139;DHT22;9195;53.176;9.486;2022-07-23T13:20:38;26.70;91.30
18139;DHT22;9195;53.176;9.486;2022-07-23T13:23:06;26.80;90.10
18139;DHT22;9195;53.176;9.486;2022-07-23T13:25:31;26.70;90.60
18139;DHT22;9195;53.176;9.486;2022-07-23T13:27:57;26.40;90.80
18139;DHT22;9195;53.176;9.486;2022-07-23T13:30:22;26.20;91.10
18139;DHT22;9195;53.176;9.486;2022-07-23T13:32:48;26.30;91.30
18139;DHT22;9195;53.176;9.486;2022-07-23T13:35:14;26.70;90.30
18139;DHT22;9195;53.176;9.486;2022-07-23T13:37:40;27.30;90.30
18139;DHT22;9195;53.176;9.486;2022-07-23T13:40:10;27.30;88.30
18139;DHT22;9195;53.176;9.486;2022-07-23T13:42:36;27.70;87.30
18139;DHT22;9195;53.176;9.486;2022-07-23T13:45:03;27.70;86.30
18139;DHT22;9195;53.176;9.486;2022-07-23T13:47:29;27.50;88.70
18139;DHT22;9195;53.176;9.486;2022-07-23T13:49:54;27.00;90.10
18139;DHT22;9195;53.176;9.486;2022-07-23T13:52:20;26.60;91.00
18139;DHT22;9195;53.176;9.486;2022-07-23T13:54:46;26.30;91.00
18139;DHT22;9195;53.176;9.486;2022-07-23T13:57:11;26.30;90.80
18139;DHT22;9195;53.176;9.486;2022-07-23T13:59:37;26.20;90.60
18139;DHT22;9195;53.176;9.486;2022-07-23T14:02:04;26.50;90.00
18139;DHT22;9195;53.176;9.486;2022-07-23T14:04:30;26.60;90.00
18139;DHT22;9195;53.176;9.486;2022-07-23T14:06:56;27.10;89.00
18139;DHT22;9195;53.176;9.486;2022-07-23T14:09:24;27.70;88.80
18139;DHT22;9195;53.176;9.486;2022-07-23T14:11:50;27.80;88.20
18139;DHT22;9195;53.176;9.486;2022-07-23T14:14:17;27.60;88.00
18139;DHT22;9195;53.176;9.486;2022-07-23T14:16:43;27.10;87.70
18139;DHT22;9195;53.176;9.486;2022-07-23T14:19:09;26.40;88.40
18139;DHT22;9195;53.176;9.486;2022-07-23T14:21:35;25.80;89.90
18139;DHT22;9195;53.176;9.486;2022-07-23T14:24:01;25.50;90.10
18139;DHT22;9195;53.176;9.486;2022-07-23T14:26:27;25.70;90.50
18139;DHT22;9195;53.176;9.486;2022-07-23T14:28:53;26.70;89.50
18139;DHT22;9195;53.176;9.486;2022-07-23T14:31:18;27.40;86.00
18139;DHT22;9195;53.176;9.486;2022-07-23T14:33:44;27.20;85.00
18139;DHT22;9195;53.176;9.486;2022-07-23T14:36:09;27.90;83.80
18139;DHT22;9195;53.176;9.486;2022-07-23T14:38:35;29.40;82.40
18139;DHT22;9195;53.176;9.486;2022-07-23T14:41:01;30.00;79.90
18139;DHT22;9195;53.176;9.486;2022-07-23T14:43:26;29.20;79.80
18139;DHT22;9195;53.176;9.486;2022-07-23T14:45:52;28.80;80.60
18139;DHT22;9195;53.176;9.486;2022-07-23T14:48:17;29.40;80.50
18139;DHT22;9195;53.176;9.486;2022-07-23T14:50:43;30.50;78.10
18139;DHT22;9195;53.176;9.486;2022-07-23T14:53:09;31.60;75.70
18139;DHT22;9195;53.176;9.486;2022-07-23T14:55:34;34.70;70.80
18139;DHT22;9195;53.176;9.486;2022-07-23T14:58:00;35.40;65.80
18139;DHT22;9195;53.176;9.486;2022-07-23T15:00:26;33.30;66.80
18139;DHT22;9195;53.176;9.486;2022-07-23T15:02:52;32.80;67.90
18139;DHT22;9195;53.176;9.486;2022-07-23T15:05:18;32.90;70.40
18139;DHT22;9195;53.176;9.486;2022-07-23T15:07:44;32.50;69.00
18139;DHT22;9195;53.176;9.486;2022-07-23T15:10:10;32.30;70.30
18139;DHT22;9195;53.176;9.486;2022-07-23T15:12:36;32.50;69.00
18139;DHT22;9195;53.176;9.486;2022-07-23T15:15:02;31.80;69.40
18139;DHT22;9195;53.176;9.486;2022-07-23T15:17:28;30.50;70.70
18139;DHT22;9195;53.176;9.486;2022-07-23T15:19:54;29.20;74.20
18139;DHT22;9195;53.176;9.486;2022-07-23T15:22:20;30.20;73.00
18139;DHT22;9195;53.176;9.486;2022-07-23T15:24:45;34.40;69.60
18139;DHT22;9195;53.176;9.486;2022-07-23T15:27:11;37.90;61.20
18139;DHT22;9195;53.176;9.486;2022-07-23T15:29:37;34.80;61.60
18139;DHT22;9195;53.176;9.486;2022-07-23T15:32:03;36.70;60.30
18139;DHT22;9195;53.176;9.486;2022-07-23T15:34:28;35.20;61.60
18139;DHT22;9195;53.176;9.486;2022-07-23T15:36:54;37.40;59.20
18139;DHT22;9195;53.176;9.486;2022-07-23T15:39:20;39.60;57.20
18139;DHT22;9195;53.176;9.486;2022-07-23T15:41:45;42.40;52.60
18139;DHT22;9195;53.176;9.486;2022-07-23T15:44:11;42.50;50.80
18139;DHT22;9195;53.176;9.486;2022-07-23T15:46:37;39.20;52.40
18139;DHT22;9195;53.176;9.486;2022-07-23T15:49:02;36.80;56.40
18139;DHT22;9195;53.176;9.486;2022-07-23T15:51:28;41.50;53.60
18139;DHT22;9195;53.176;9.486;2022-07-23T15:53:54;42.50;49.40
18139;DHT22;9195;53.176;9.486;2022-07-23T15:56:20;44.10;48.00
18139;DHT22;9195;53.176;9.486;2022-07-23T15:58:46;46.20;45.70
18139;DHT22;9195;53.176;9.486;2022-07-23T16:01:12;44.30;45.40
18139;DHT22;9195;53.176;9.486;2022-07-23T16:03:37;42.80;47.60
18139;DHT22;9195;53.176;9.486;2022-07-23T16:06:04;42.90;47.60
18139;DHT22;9195;53.176;9.486;2022-07-23T16:08:30;40.30;48.60
18139;DHT22;9195;53.176;9.486;2022-07-23T16:10:56;37.90;51.80
18139;DHT22;9195;53.176;9.486;2022-07-23T16:13:24;36.60;52.10
18139;DHT22;9195;53.176;9.486;2022-07-23T16:15:50;36.50;53.60
18139;DHT22;9195;53.176;9.486;2022-07-23T16:18:16;37.10;52.50